Time;durP1;ratioP1;P1;durP2;ratioP2;P2;SDS_P1;SDS_P2;PMS_P1;PMS_P2;Temp;Humidity;BMP_temperature;BMP_pressure;BME280_temperature;BME280_humidity;BME280_pressure;Samples;Min_cycle;Max_cycle;Signal;HPM_P1;HPM_P2
2021/06/30 00:01:16;;;;;;;1.07;0.60;;;17.80;99.90;;;;;;5017344;28;20526;-82
2021/06/30 00:03:42;;;;;;;2.83;0.77;;;17.80;99.90;;;;;;5019497;28;20170;-81
2021/06/30 00:06:08;;;;;;;1.10;0.60;;;17.80;99.90;;;;;;5017253;28;20613;-81
2021/06/30 00:08:34;;;;;;;1.20;0.70;;;17.70;99.90;;;;;;5016387;28;20277;-81
2021/06/30 00:11:03;;;;;;;1.00;0.60;;;17.70;99.90;;;;;;5000113;28;20180;-81
2021/06/30 00:13:29;;;;;;;1.93;0.70;;;17.70;99.90;;;;;;5014159;28;20637;-81
2021/06/30 00:15:55;;;;;;;1.70;1.10;;;17.70;99.90;;;;;;5015172;28;20608;-81
2021/06/30 00:18:25;;;;;;;1.50;0.80;;;17.70;99.90;;;;;;5015958;28;20613;-81
2021/06/30 00:20:52;;;;;;;1.20;0.70;;;17.70;99.90;;;;;;5015391;28;20974;-82
2021/06/30 00:23:20;;;;;;;1.87;0.70;;;17.70;99.90;;;;;;5014341;28;20561;-81
2021/06/30 00:25:45;;;;;;;2.20;0.80;;;17.60;99.90;;;;;;5012416;28;20683;-81
2021/06/30 00:28:11;;;;;;;1.50;0.77;;;17.60;99.90;;;;;;4995564;28;20193;-81
2021/06/30 00:30:38;;;;;;;2.37;0.80;;;17.70;99.90;;;;;;4998919;28;20220;-81
2021/06/30 00:33:04;;;;;;;1.30;0.80;;;17.60;99.90;;;;;;5013977;28;21143;-82
2021/06/30 00:35:30;;;;;;;1.30;0.60;;;17.60;99.90;;;;;;5012283;28;20592;-82
2021/06/30 00:37:57;;;;;;;1.67;0.70;;;17.60;99.90;;;;;;4995528;28;20613;-82
2021/06/30 00:40:23;;;;;;;1.97;0.80;;;17.60;99.90;;;;;;5013438;28;20565;-81
2021/06/30 00:42:49;;;;;;;1.43;0.80;;;17.50;99.90;;;;;;5013907;28;20573;-81
2021/06/30 00:47:49;;;;;;;1.40;0.70;;;17.50;99.90;;;;;;4997771;28;20626;-77
2021/06/30 00:50:17;;;;;;;1.60;0.83;;;17.50;99.90;;;;;;4997690;28;20937;-77
2021/06/30 00:52:43;;;;;;;1.60;0.90;;;17.50;99.90;;;;;;4969734;28;20585;-77
2021/06/30 00:55:11;;;;;;;1.20;0.80;;;17.50;99.90;;;;;;4994246;28;20573;-77
2021/06/30 00:57:38;;;;;;;1.53;0.90;;;17.50;99.90;;;;;;5015690;28;20669;-77
2021/06/30 01:00:06;;;;;;;1.93;0.80;;;17.50;99.90;;;;;;5011658;28;20616;-77
2021/06/30 01:02:32;;;;;;;2.03;0.83;;;17.40;99.90;;;;;;5010660;28;20588;-78
2021/06/30 01:04:58;;;;;;;1.30;0.90;;;17.40;99.90;;;;;;5010525;28;21131;-78
2021/06/30 01:07:24;;;;;;;1.47;1.00;;;17.40;99.90;;;;;;4993634;28;20633;-78
2021/06/30 01:09:50;;;;;;;1.40;0.90;;;17.40;99.90;;;;;;5010380;28;20163;-78
2021/06/30 01:12:15;;;;;;;2.00;0.80;;;17.40;99.90;;;;;;5011913;28;20158;-77
2021/06/30 01:14:41;;;;;;;2.07;0.80;;;17.40;99.90;;;;;;5011425;28;20565;-78
2021/06/30 01:17:08;;;;;;;1.37;0.80;;;17.40;99.90;;;;;;5011780;28;20248;-78
2021/06/30 01:19:37;;;;;;;1.67;0.80;;;17.40;99.90;;;;;;5011717;28;20561;-78
2021/06/30 01:22:05;;;;;;;2.00;1.03;;;17.40;99.90;;;;;;5011995;28;21111;-78
2021/06/30 01:24:34;;;;;;;1.47;0.73;;;17.40;99.90;;;;;;5012134;28;20566;-77
2021/06/30 01:27:01;;;;;;;1.80;0.93;;;17.40;99.90;;;;;;5010793;28;20636;-78
2021/06/30 01:29:27;;;;;;;1.50;0.70;;;17.40;99.90;;;;;;5012971;28;21128;-78
2021/06/30 01:31:53;;;;;;;1.30;1.03;;;17.40;99.90;;;;;;5013875;28;20585;-78
2021/06/30 01:34:20;;;;;;;2.47;0.90;;;17.50;99.90;;;;;;5015849;28;20574;-78
2021/06/30 01:36:51;;;;;;;2.23;0.90;;;17.50;99.90;;;;;;5011333;28;20633;-77
2021/06/30 01:39:19;;;;;;;1.40;0.90;;;17.50;99.90;;;;;;4993742;28;20578;-77
2021/06/30 01:41:45;;;;;;;1.70;0.83;;;17.60;99.90;;;;;;5011322;28;20573;-77
2021/06/30 01:44:12;;;;;;;1.30;0.90;;;17.60;99.90;;;;;;4993802;28;20569;-77
2021/06/30 01:46:41;;;;;;;1.67;1.13;;;17.60;99.90;;;;;;4977455;28;20639;-77
2021/06/30 01:49:07;;;;;;;1.70;0.93;;;17.60;99.90;;;;;;5014416;28;20940;-77
2021/06/30 01:51:34;;;;;;;1.20;0.70;;;17.70;99.90;;;;;;5013404;28;20565;-77
2021/06/30 01:54:02;;;;;;;1.40;1.03;;;17.70;99.90;;;;;;4980790;28;20711;-78
2021/06/30 01:56:30;;;;;;;10.30;1.87;;;17.70;99.90;;;;;;5013060;28;20619;-78
2021/06/30 01:59:09;;;;;;;1.30;1.00;;;17.70;99.90;;;;;;5014381;28;20943;-79
2021/06/30 02:01:35;;;;;;;1.63;1.00;;;17.70;99.90;;;;;;5014343;28;20942;-78
2021/06/30 02:04:02;;;;;;;2.17;0.90;;;17.70;99.90;;;;;;5014590;28;20601;-76
2021/06/30 02:06:35;;;;;;;1.83;1.10;;;17.70;99.90;;;;;;5014201;28;20633;-77
2021/06/30 02:09:01;;;;;;;2.33;1.00;;;17.70;99.90;;;;;;4996667;28;20684;-79
2021/06/30 02:11:26;;;;;;;1.40;0.80;;;17.70;99.90;;;;;;5001160;28;20596;-78
2021/06/30 02:13:53;;;;;;;2.03;0.90;;;17.70;99.90;;;;;;5014284;28;20584;-78
2021/06/30 02:16:20;;;;;;;1.43;1.00;;;17.70;99.90;;;;;;5012689;28;20197;-78
2021/06/30 02:18:46;;;;;;;3.23;0.83;;;17.70;99.90;;;;;;4996192;28;20566;-78
2021/06/30 02:21:13;;;;;;;2.03;0.87;;;17.70;99.90;;;;;;5012959;28;20569;-78
2021/06/30 02:23:39;;;;;;;1.40;1.07;;;17.70;99.90;;;;;;5013975;28;20635;-78
2021/06/30 02:26:04;;;;;;;2.00;1.00;;;17.70;99.90;;;;;;4996128;28;20668;-78
2021/06/30 02:28:31;;;;;;;2.60;1.10;;;17.70;99.90;;;;;;5013748;28;21140;-78
2021/06/30 02:30:57;;;;;;;2.30;0.90;;;17.70;99.90;;;;;;5013983;28;20181;-78
2021/06/30 02:33:23;;;;;;;1.40;1.00;;;17.70;99.90;;;;;;5013817;28;20605;-78
2021/06/30 02:35:49;;;;;;;2.00;1.10;;;17.70;99.90;;;;;;5013580;28;20647;-78
2021/06/30 02:38:16;;;;;;;1.57;0.90;;;17.70;99.90;;;;;;5013631;28;20677;-78
2021/06/30 02:40:42;;;;;;;1.50;1.20;;;17.70;99.90;;;;;;4996213;28;20566;-78
2021/06/30 02:43:08;;;;;;;1.63;1.07;;;17.70;99.90;;;;;;5013679;28;20580;-78
2021/06/30 02:45:33;;;;;;;1.80;1.00;;;17.70;99.90;;;;;;5011748;28;20644;-78
2021/06/30 02:47:59;;;;;;;1.70;1.10;;;17.70;99.90;;;;;;5018068;28;20159;-78
2021/06/30 02:50:25;;;;;;;1.60;1.20;;;17.70;99.90;;;;;;5012385;28;20570;-78
2021/06/30 02:52:52;;;;;;;1.40;1.00;;;17.70;99.90;;;;;;5013445;28;20159;-77
2021/06/30 02:55:19;;;;;;;2.17;1.30;;;17.70;99.90;;;;;;5004711;28;20671;-77
2021/06/30 02:57:46;;;;;;;1.77;0.93;;;17.70;99.90;;;;;;5012247;28;20569;-77
2021/06/30 03:00:16;;;;;;;1.60;1.30;;;17.70;99.90;;;;;;5013116;28;20558;-78
2021/06/30 03:02:43;;;;;;;1.63;1.20;;;17.70;99.90;;;;;;5013829;28;20572;-77
2021/06/30 03:05:09;;;;;;;3.20;1.60;;;17.70;99.90;;;;;;5013501;28;20973;-77
2021/06/30 03:07:35;;;;;;;2.57;2.37;;;17.60;99.90;;;;;;5013893;28;20620;-78
2021/06/30 03:10:01;;;;;;;2.47;1.50;;;17.60;99.90;;;;;;5013832;28;21121;-77
2021/06/30 03:12:27;;;;;;;1.73;1.60;;;17.50;99.90;;;;;;5013816;28;20189;-78
2021/06/30 03:14:52;;;;;;;2.07;1.53;;;17.40;99.90;;;;;;4996129;28;20584;-77
2021/06/30 03:17:18;;;;;;;1.70;1.20;;;17.40;99.90;;;;;;5013337;28;20688;-78
2021/06/30 03:19:44;;;;;;;1.97;1.30;;;17.40;99.90;;;;;;4995481;28;20910;-77
2021/06/30 03:22:10;;;;;;;4.50;1.40;;;17.30;99.90;;;;;;5014546;28;20600;-77
2021/06/30 03:24:35;;;;;;;1.40;1.30;;;17.40;99.90;;;;;;4998514;28;20185;-78
2021/06/30 03:27:02;;;;;;;2.00;1.80;;;17.30;99.90;;;;;;5016365;28;20783;-76
2021/06/30 03:29:28;;;;;;;2.20;1.67;;;17.40;99.90;;;;;;5018964;28;20173;-76
2021/06/30 03:31:54;;;;;;;1.90;1.30;;;17.40;99.90;;;;;;4989276;28;20950;-75
2021/06/30 03:34:21;;;;;;;1.60;1.00;;;17.40;99.90;;;;;;5014539;28;20193;-76
2021/06/30 03:36:46;;;;;;;2.23;1.10;;;17.40;99.90;;;;;;5012466;28;20623;-75
2021/06/30 03:39:13;;;;;;;2.23;1.30;;;17.40;99.90;;;;;;5012353;28;20574;-74
2021/06/30 03:41:39;;;;;;;3.07;1.10;;;17.50;99.90;;;;;;5012352;28;20624;-75
2021/06/30 03:44:05;;;;;;;1.47;0.90;;;17.50;99.90;;;;;;5012354;28;20581;-76
2021/06/30 03:46:31;;;;;;;5.63;1.10;;;17.50;99.90;;;;;;5012084;28;20202;-75
2021/06/30 03:48:57;;;;;;;1.73;1.27;;;17.50;99.90;;;;;;5012094;28;20576;-75
2021/06/30 03:51:22;;;;;;;1.57;0.93;;;17.60;99.90;;;;;;5012096;28;20631;-75
2021/06/30 03:53:48;;;;;;;2.27;1.20;;;17.50;99.90;;;;;;4995041;28;20179;-75
2021/06/30 03:56:14;;;;;;;3.00;1.77;;;17.50;99.90;;;;;;5012474;28;20197;-75
2021/06/30 03:58:40;;;;;;;1.80;1.03;;;17.60;99.90;;;;;;5014587;28;20669;-75
2021/06/30 04:01:05;;;;;;;3.17;1.27;;;17.60;99.90;;;;;;5015005;28;20177;-76
2021/06/30 04:03:31;;;;;;;3.43;1.50;;;17.60;99.90;;;;;;5012188;28;20162;-75
2021/06/30 04:05:58;;;;;;;1.97;1.53;;;17.60;99.90;;;;;;5011980;28;20296;-76
2021/06/30 04:08:24;;;;;;;2.20;1.57;;;17.60;99.90;;;;;;5010641;28;20161;-75
2021/06/30 04:10:53;;;;;;;2.27;1.70;;;17.60;99.90;;;;;;5011878;28;20581;-75
2021/06/30 04:13:19;;;;;;;3.40;1.87;;;17.60;99.90;;;;;;5011697;28;20701;-76
2021/06/30 04:15:45;;;;;;;2.17;1.60;;;17.70;99.90;;;;;;5011709;28;20772;-76
2021/06/30 04:18:11;;;;;;;2.33;1.70;;;17.70;99.90;;;;;;4994174;28;20167;-76
2021/06/30 04:20:40;;;;;;;2.63;1.37;;;17.80;99.90;;;;;;5011113;28;20584;-76
2021/06/30 04:23:09;;;;;;;3.70;1.40;;;17.90;99.90;;;;;;5011981;28;21146;-76
2021/06/30 04:25:34;;;;;;;1.50;1.20;;;17.90;99.90;;;;;;5011698;28;20706;-75
2021/06/30 04:28:00;;;;;;;2.33;1.50;;;18.00;99.90;;;;;;4993866;28;20585;-75
2021/06/30 04:30:26;;;;;;;2.00;1.47;;;18.00;99.90;;;;;;5011889;28;20162;-75
2021/06/30 04:32:52;;;;;;;3.30;1.53;;;18.10;99.90;;;;;;5010646;28;20644;-75
2021/06/30 04:35:18;;;;;;;1.67;1.47;;;18.10;99.90;;;;;;5015441;28;20189;-75
2021/06/30 04:37:43;;;;;;;3.33;2.00;;;18.20;99.90;;;;;;5012181;28;20202;-75
2021/06/30 04:40:09;;;;;;;2.93;1.73;;;18.30;99.90;;;;;;4993795;28;20233;-75
2021/06/30 04:42:35;;;;;;;5.43;2.17;;;18.40;99.90;;;;;;5012184;28;20174;-76
2021/06/30 04:45:01;;;;;;;2.43;1.57;;;18.40;99.90;;;;;;5011658;28;20611;-76
2021/06/30 04:47:27;;;;;;;3.37;2.10;;;18.40;99.90;;;;;;4993666;28;20660;-75
2021/06/30 04:49:53;;;;;;;2.60;1.73;;;18.40;99.90;;;;;;5010086;28;20590;-75
2021/06/30 04:52:18;;;;;;;3.10;1.70;;;18.30;99.90;;;;;;4994004;28;20541;-75
2021/06/30 04:54:44;;;;;;;3.50;2.00;;;18.20;99.90;;;;;;5011741;28;20170;-75
2021/06/30 04:57:10;;;;;;;4.23;1.90;;;18.20;99.90;;;;;;4994140;28;20190;-75
2021/06/30 04:59:36;;;;;;;2.00;1.70;;;18.10;99.90;;;;;;5011362;28;20169;-75
2021/06/30 05:02:02;;;;;;;2.53;1.83;;;18.10;99.90;;;;;;5012032;28;20265;-75
2021/06/30 05:04:28;;;;;;;6.50;1.50;;;18.10;99.90;;;;;;5011807;28;20601;-75
2021/06/30 05:06:53;;;;;;;2.00;1.80;;;18.10;99.90;;;;;;5011728;28;20633;-75
2021/06/30 05:09:19;;;;;;;9.53;2.37;;;18.10;99.90;;;;;;5012098;28;20642;-75
2021/06/30 05:11:45;;;;;;;2.90;1.50;;;18.10;99.90;;;;;;5015590;28;20171;-74
2021/06/30 05:14:10;;;;;;;1.87;1.73;;;18.10;99.90;;;;;;5013951;28;20171;-74
2021/06/30 05:16:36;;;;;;;2.50;1.57;;;18.10;99.90;;;;;;4996209;28;20194;-74
2021/06/30 05:19:02;;;;;;;4.50;1.80;;;18.10;99.90;;;;;;5003308;28;20216;-73
2021/06/30 05:21:28;;;;;;;4.93;1.43;;;18.10;99.90;;;;;;5011949;28;20587;-75
2021/06/30 05:23:53;;;;;;;1.97;1.30;;;18.10;99.90;;;;;;5015798;28;20576;-76
2021/06/30 05:26:19;;;;;;;2.40;1.90;;;18.20;99.90;;;;;;5015057;28;20213;-76
2021/06/30 05:28:45;;;;;;;2.03;1.83;;;18.20;99.90;;;;;;5013979;28;20237;-76
2021/06/30 05:31:13;;;;;;;1.80;1.53;;;18.20;99.90;;;;;;5014155;28;20190;-77
2021/06/30 05:33:39;;;;;;;1.70;1.40;;;18.20;99.90;;;;;;5013908;28;20577;-76
2021/06/30 05:36:05;;;;;;;3.50;1.60;;;18.20;99.90;;;;;;5013803;28;20261;-76
2021/06/30 05:38:33;;;;;;;3.07;1.23;;;18.30;99.90;;;;;;5014768;28;20183;-77
2021/06/30 05:40:59;;;;;;;3.30;1.17;;;18.30;99.90;;;;;;5015053;28;20592;-76
2021/06/30 05:43:25;;;;;;;1.47;1.00;;;18.40;99.90;;;;;;5015247;28;20573;-77
2021/06/30 05:45:51;;;;;;;3.77;3.00;;;18.40;99.90;;;;;;5015674;28;20198;-77
2021/06/30 05:48:19;;;;;;;2.77;1.40;;;18.50;99.90;;;;;;5018825;28;20170;-75
2021/06/30 05:50:44;;;;;;;1.63;1.53;;;18.60;99.90;;;;;;5015745;28;20592;-75
2021/06/30 05:53:10;;;;;;;2.27;2.07;;;18.70;99.90;;;;;;5015071;28;20297;-75
2021/06/30 05:55:36;;;;;;;2.53;1.90;;;18.80;99.90;;;;;;4996915;28;20198;-75
2021/06/30 05:58:01;;;;;;;4.87;2.00;;;18.90;99.90;;;;;;5015436;28;20178;-74
2021/06/30 06:00:27;;;;;;;2.90;2.10;;;19.20;99.90;;;;;;5014758;28;20697;-75
2021/06/30 06:02:53;;;;;;;3.80;2.10;;;19.60;99.90;;;;;;5014556;28;20224;-76
2021/06/30 06:05:19;;;;;;;3.50;2.17;;;20.30;99.90;;;;;;4996639;28;20201;-75
2021/06/30 06:07:44;;;;;;;1.60;1.40;;;20.80;99.90;;;;;;5014272;28;20522;-76
2021/06/30 06:10:18;;;;;;;2.33;1.70;;;21.10;99.90;;;;;;5014735;28;20281;-75
2021/06/30 06:12:44;;;;;;;1.80;1.00;;;21.40;99.90;;;;;;5014102;28;20996;-75
2021/06/30 06:15:11;;;;;;;1.70;1.10;;;21.50;99.90;;;;;;5012822;28;20574;-74
2021/06/30 06:17:38;;;;;;;3.93;1.33;;;21.70;99.90;;;;;;5014137;28;20167;-74
2021/06/30 06:20:09;;;;;;;2.67;1.43;;;21.80;99.90;;;;;;5013859;28;20929;-74
2021/06/30 06:22:35;;;;;;;2.20;1.80;;;21.90;99.90;;;;;;5013110;28;20593;-75
2021/06/30 06:25:03;;;;;;;1.93;1.20;;;22.00;99.90;;;;;;5016924;28;20905;-74
2021/06/30 06:27:28;;;;;;;1.30;1.10;;;22.00;99.90;;;;;;5013836;28;20556;-74
2021/06/30 06:29:54;;;;;;;3.50;2.30;;;22.10;99.90;;;;;;4996061;28;20569;-74
2021/06/30 06:32:20;;;;;;;3.77;1.10;;;22.20;99.90;;;;;;5013848;28;20170;-75
2021/06/30 06:34:46;;;;;;;1.90;1.30;;;22.10;99.90;;;;;;5013682;28;20818;-75
2021/06/30 06:37:14;;;;;;;1.83;1.10;;;22.10;99.90;;;;;;5012414;28;20213;-74
2021/06/30 06:39:43;;;;;;;1.60;1.10;;;22.00;99.90;;;;;;5013659;28;20564;-73
2021/06/30 06:42:11;;;;;;;1.90;1.00;;;22.00;99.90;;;;;;5013815;28;20585;-75
2021/06/30 06:44:41;;;;;;;1.67;1.07;;;21.90;99.90;;;;;;4985421;28;20629;-74
2021/06/30 06:47:07;;;;;;;1.40;1.00;;;21.90;99.90;;;;;;5017243;23;20684;-78
2021/06/30 06:49:33;;;;;;;1.63;1.13;;;21.90;99.90;;;;;;4999786;28;20602;-78
2021/06/30 06:52:01;;;;;;;2.17;1.30;;;21.80;99.90;;;;;;4997725;28;20939;-79
2021/06/30 06:54:26;;;;;;;1.80;1.10;;;21.70;99.90;;;;;;5015194;28;20166;-79
2021/06/30 06:56:52;;;;;;;6.60;1.10;;;21.70;99.90;;;;;;4998179;28;20597;-78
2021/06/30 06:59:18;;;;;;;3.87;1.20;;;21.60;99.90;;;;;;5013730;28;20523;-79
2021/06/30 07:01:44;;;;;;;1.70;1.20;;;21.50;99.90;;;;;;4997174;28;20734;-78
2021/06/30 07:04:10;;;;;;;1.60;1.20;;;21.40;99.90;;;;;;5015655;28;20565;-79
2021/06/30 07:06:35;;;;;;;2.23;1.50;;;21.50;99.90;;;;;;4997293;28;20210;-79
2021/06/30 07:09:01;;;;;;;2.27;1.23;;;21.50;99.90;;;;;;5016013;28;20174;-79
2021/06/30 07:11:27;;;;;;;2.10;1.20;;;21.50;99.90;;;;;;5016266;28;20704;-79
2021/06/30 07:13:53;;;;;;;5.03;0.90;;;21.50;99.90;;;;;;5015239;28;20573;-79
2021/06/30 07:16:19;;;;;;;2.33;0.80;;;21.50;99.90;;;;;;5014706;28;20190;-79
2021/06/30 07:18:44;;;;;;;1.57;0.80;;;21.50;99.90;;;;;;5014740;28;20482;-79
2021/06/30 07:21:11;;;;;;;1.20;0.70;;;21.50;99.90;;;;;;5015230;28;20569;-79
2021/06/30 07:23:38;;;;;;;1.17;0.63;;;21.50;99.90;;;;;;4980546;28;20614;-79
2021/06/30 07:26:06;;;;;;;2.37;0.80;;;21.50;99.90;;;;;;5013098;28;20639;-79
2021/06/30 07:28:32;;;;;;;3.77;0.90;;;21.50;99.90;;;;;;4996413;28;20676;-78
2021/06/30 07:30:58;;;;;;;2.17;1.10;;;21.60;99.90;;;;;;5013636;28;20685;-78
2021/06/30 07:33:24;;;;;;;1.40;0.50;;;21.60;99.90;;;;;;5013199;28;20588;-79
2021/06/30 07:35:50;;;;;;;2.07;0.50;;;21.50;99.90;;;;;;5013291;28;20964;-78
2021/06/30 07:38:16;;;;;;;1.30;0.60;;;21.50;99.90;;;;;;5012647;28;20636;-79
2021/06/30 07:40:42;;;;;;;1.43;0.60;;;21.50;99.90;;;;;;5013332;28;20566;-78
2021/06/30 07:43:08;;;;;;;2.03;0.60;;;21.60;99.90;;;;;;5013788;28;20182;-79
2021/06/30 07:45:34;;;;;;;2.17;0.70;;;21.70;99.90;;;;;;5008972;28;21159;-79
2021/06/30 07:47:59;;;;;;;1.77;0.67;;;21.90;99.90;;;;;;5008544;28;20565;-80
2021/06/30 07:50:26;;;;;;;1.23;0.70;;;22.10;99.90;;;;;;4980326;28;20175;-79
2021/06/30 07:52:52;;;;;;;3.00;1.47;;;22.20;99.90;;;;;;5011979;28;20640;-79
2021/06/30 07:55:21;;;;;;;8.60;7.83;;;22.40;99.90;;;;;;5005592;28;20632;-78
2021/06/30 07:57:47;;;;;;;3.43;1.90;;;22.50;99.90;;;;;;5012525;28;20928;-78
2021/06/30 08:00:13;;;;;;;4.23;1.47;;;22.60;99.90;;;;;;5006813;28;20586;-79
2021/06/30 08:02:39;;;;;;;4.90;0.70;;;22.70;99.90;;;;;;5012940;28;20182;-78
2021/06/30 08:05:07;;;;;;;1.20;0.70;;;22.80;99.90;;;;;;5014316;28;20608;-80
2021/06/30 08:07:33;;;;;;;1.20;0.60;;;23.20;99.90;;;;;;5020667;28;20675;-79
2021/06/30 08:09:58;;;;;;;1.10;0.50;;;23.90;99.90;;;;;;5013583;28;20594;-79
2021/06/30 08:12:25;;;;;;;3.37;0.70;;;24.70;99.90;;;;;;5011959;28;20601;-80
2021/06/30 08:14:51;;;;;;;1.10;0.57;;;25.50;99.90;;;;;;5019220;28;20194;-80
2021/06/30 08:17:17;;;;;;;1.20;0.60;;;26.00;99.90;;;;;;5001963;28;20652;-80
2021/06/30 08:19:42;;;;;;;1.30;0.50;;;26.20;99.90;;;;;;5007300;28;20578;-80
2021/06/30 08:22:11;;;;;;;1.00;0.40;;;26.20;99.90;;;;;;5020119;28;20177;-78
2021/06/30 08:24:45;;;;;;;1.10;0.57;;;26.10;99.90;;;;;;5013767;28;20189;-77
2021/06/30 08:27:12;;;;;;;1.07;0.50;;;25.90;99.90;;;;;;5013523;28;20652;-78
2021/06/30 08:29:40;;;;;;;1.50;0.60;;;25.90;99.90;;;;;;4981207;28;20577;-78
2021/06/30 08:32:06;;;;;;;1.07;0.43;;;26.10;99.90;;;;;;5010733;28;20954;-79
2021/06/30 08:34:32;;;;;;;1.47;0.60;;;26.80;99.90;;;;;;5006744;28;20649;-78
2021/06/30 08:37:00;;;;;;;1.00;0.40;;;27.70;99.90;;;;;;5004932;28;21150;-79
2021/06/30 08:39:28;;;;;;;5.00;4.33;;;28.70;99.90;;;;;;5019733;28;20235;-79
2021/06/30 08:41:54;;;;;;;2.70;1.30;;;29.70;99.90;;;;;;5000373;28;20645;-79
2021/06/30 08:44:21;;;;;;;2.80;0.70;;;30.10;99.90;;;;;;5023132;28;20582;-79
2021/06/30 08:46:47;;;;;;;1.20;0.60;;;30.20;99.90;;;;;;5022445;28;20644;-78
2021/06/30 08:49:15;;;;;;;1.10;0.60;;;30.00;99.90;;;;;;5021053;28;20569;-79
2021/06/30 08:51:43;;;;;;;1.47;0.60;;;29.60;99.90;;;;;;5018810;28;20684;-79
2021/06/30 08:54:11;;;;;;;1.80;0.50;;;29.20;99.90;;;;;;5021018;28;20600;-79
2021/06/30 08:56:37;;;;;;;2.40;0.60;;;29.30;99.90;;;;;;5022011;28;20616;-79
2021/06/30 08:59:03;;;;;;;1.50;0.63;;;29.60;99.90;;;;;;5025608;28;20593;-78
2021/06/30 09:01:30;;;;;;;1.20;0.70;;;29.70;99.90;;;;;;5025944;28;20577;-79
2021/06/30 09:03:57;;;;;;;1.10;0.60;;;29.50;99.90;;;;;;5013787;28;21236;-79
2021/06/30 09:06:24;;;;;;;1.80;0.50;;;29.30;99.90;;;;;;4991997;28;20663;-78
2021/06/30 09:08:50;;;;;;;1.30;0.67;;;29.30;99.90;;;;;;5028235;28;20581;-78
2021/06/30 09:11:26;;;;;;;1.10;0.50;;;29.40;99.90;;;;;;5026800;28;20619;-79
2021/06/30 09:14:17;;;;;;;1.23;0.60;;;29.80;99.90;;;;;;5023627;28;20239;-79
2021/06/30 09:17:20;;;;;;;0.90;0.40;;;30.30;99.90;;;;;;5005576;28;20970;-79
2021/06/30 09:19:53;;;;;;;2.00;0.50;;;30.70;99.90;;;;;;5007988;28;20578;-79
2021/06/30 09:22:25;;;;;;;1.70;0.60;;;30.70;99.90;;;;;;5005140;28;20934;-79
2021/06/30 09:24:51;;;;;;;1.53;0.60;;;30.40;99.90;;;;;;5004594;28;20639;-79
2021/06/30 09:27:19;;;;;;;1.43;0.77;;;30.00;99.90;;;;;;5002405;28;20645;-79
2021/06/30 09:29:46;;;;;;;1.63;1.13;;;29.50;99.90;;;;;;5002564;28;20591;-79
2021/06/30 09:32:15;;;;;;;1.70;1.00;;;29.10;99.90;;;;;;5002192;28;20598;-79
2021/06/30 09:34:41;;;;;;;1.93;0.83;;;28.60;99.90;;;;;;5002995;28;20931;-79
2021/06/30 09:37:08;;;;;;;1.40;0.60;;;28.30;99.90;;;;;;5004172;28;20602;-79
2021/06/30 09:44:21;;;;;;;1.20;0.73;;;29.00;99.90;;;;;;4893495;29;20633;-79
2021/06/30 09:47:22;;;;;;;3.10;0.50;;;30.40;99.90;;;;;;4897765;29;20670;-79
2021/06/30 09:49:57;;;;;;;1.20;0.50;;;30.80;99.90;;;;;;4911113;29;20593;-78
2021/06/30 09:52:23;;;;;;;1.40;0.60;;;31.10;99.90;;;;;;4968517;28;20630;-79
2021/06/30 09:54:49;;;;;;;1.10;0.50;;;31.10;99.50;;;;;;5026884;28;21145;-79
2021/06/30 09:57:17;;;;;;;1.30;0.43;;;31.00;98.50;;;;;;5014763;28;20190;-79
2021/06/30 09:59:44;;;;;;;1.30;0.50;;;31.10;98.20;;;;;;5025721;28;21078;-80
2021/06/30 10:02:13;;;;;;;1.33;0.60;;;31.20;98.10;;;;;;5029000;28;20633;-79
2021/06/30 10:04:39;;;;;;;1.87;0.50;;;31.40;97.80;;;;;;5026988;28;20570;-80
2021/06/30 10:07:11;;;;;;;1.20;0.50;;;31.50;97.00;;;;;;5019205;28;20633;-80
2021/06/30 10:09:39;;;;;;;1.40;0.43;;;31.40;95.40;;;;;;5025632;28;20599;-79
2021/06/30 10:12:13;;;;;;;1.77;0.50;;;31.10;94.40;;;;;;5008902;28;20955;-79
2021/06/30 10:14:42;;;;;;;1.10;0.40;;;30.90;93.50;;;;;;5028384;28;20589;-79
2021/06/30 10:17:10;;;;;;;1.00;0.50;;;31.10;95.60;;;;;;5031025;28;20620;-80
2021/06/30 10:19:37;;;;;;;1.07;0.50;;;31.40;95.20;;;;;;5014447;28;20562;-79
2021/06/30 10:22:05;;;;;;;1.37;0.50;;;31.50;94.60;;;;;;5013993;28;20587;-79
2021/06/30 10:24:31;;;;;;;1.20;0.80;;;31.40;93.60;;;;;;5016289;28;20620;-79
2021/06/30 10:26:57;;;;;;;1.80;1.23;;;31.20;92.80;;;;;;5032918;28;20648;-78
2021/06/30 10:29:26;;;;;;;1.93;0.70;;;31.00;92.00;;;;;;5009791;28;20585;-79
2021/06/30 10:31:54;;;;;;;2.23;0.70;;;30.60;91.10;;;;;;4988276;28;20596;-79
2021/06/30 10:34:33;;;;;;;1.50;0.70;;;30.20;91.10;;;;;;5005133;28;20566;-80
2021/06/30 10:36:59;;;;;;;2.70;0.60;;;29.70;90.40;;;;;;5020360;28;20597;-80
2021/06/30 10:39:39;;;;;;;4.80;2.90;;;29.40;91.40;;;;;;5026963;28;20570;-80
2021/06/30 10:42:34;;;;;;;10.50;7.07;;;28.90;91.40;;;;;;5026194;28;20166;-79
2021/06/30 10:45:16;;;;;;;4.27;2.90;;;28.70;92.30;;;;;;4998276;28;20592;-79
2021/06/30 10:47:52;;;;;;;2.80;2.30;;;28.30;91.70;;;;;;5018610;28;21202;-80
2021/06/30 10:50:22;;;;;;;4.27;2.43;;;28.00;92.40;;;;;;4987845;28;21125;-79
2021/06/30 10:52:55;;;;;;;2.80;1.60;;;27.70;92.70;;;;;;4997429;28;20558;-80
2021/06/30 10:55:48;;;;;;;2.87;1.90;;;27.50;93.00;;;;;;4994704;28;20647;-79
2021/06/30 10:58:17;;;;;;;2.70;1.27;;;27.40;93.90;;;;;;4995926;28;20578;-79
2021/06/30 11:01:03;;;;;;;2.37;1.07;;;27.60;94.60;;;;;;4995403;28;20582;-78
2021/06/30 11:03:38;;;;;;;2.27;0.80;;;27.70;94.50;;;;;;4996460;28;20574;-79
2021/06/30 11:06:10;;;;;;;2.90;1.00;;;27.70;94.20;;;;;;4995893;28;20633;-79
2021/06/30 11:09:23;;;;;;;3.07;2.07;;;27.70;93.80;;;;;;4996421;28;20559;-79
2021/06/30 11:11:51;;;;;;;2.10;1.33;;;27.60;93.30;;;;;;4996401;28;20566;-79
2021/06/30 11:14:19;;;;;;;1.73;1.00;;;27.60;94.60;;;;;;4995749;28;20562;-80
2021/06/30 11:16:53;;;;;;;2.77;0.90;;;27.70;94.70;;;;;;5010934;28;21188;-79
2021/06/30 11:19:18;;;;;;;1.20;0.70;;;27.80;94.80;;;;;;4998957;28;20579;-80
2021/06/30 11:21:44;;;;;;;1.33;0.57;;;28.10;95.00;;;;;;5020543;28;20617;-80
2021/06/30 11:27:20;;;;;;;1.30;0.70;;;28.20;93.70;;;;;;4994826;28;20221;-79
2021/06/30 11:29:59;;;;;;;3.27;1.93;;;28.40;93.90;;;;;;4948396;28;21027;-79
2021/06/30 11:32:39;;;;;;;2.30;1.60;;;28.80;94.30;;;;;;4981546;28;20578;-80
2021/06/30 11:35:26;;;;;;;2.53;1.80;;;28.80;93.40;;;;;;4981386;28;20629;-79
2021/06/30 11:38:05;;;;;;;3.10;1.97;;;28.80;93.10;;;;;;4998402;28;20602;-79
2021/06/30 11:42:59;;;;;;;1.80;1.00;;;28.80;92.40;;;;;;4999661;28;20587;-80
2021/06/30 11:45:33;;;;;;;3.60;1.50;;;28.60;92.00;;;;;;4994894;28;20573;-78
2021/06/30 11:48:04;;;;;;;2.07;1.17;;;28.50;90.90;;;;;;4976774;28;20621;-80
2021/06/30 11:50:42;;;;;;;1.20;0.77;;;28.30;91.40;;;;;;5015049;28;20581;-80
2021/06/30 11:53:08;;;;;;;1.37;0.90;;;28.10;91.50;;;;;;4996516;28;20561;-78
2021/06/30 11:55:39;;;;;;;3.03;0.70;;;28.10;92.10;;;;;;5014111;28;20572;-79
2021/06/30 11:58:05;;;;;;;1.93;0.70;;;28.10;92.00;;;;;;5021268;28;20186;-80
2021/06/30 12:00:34;;;;;;;1.40;0.90;;;28.10;92.10;;;;;;5035572;28;20585;-80
2021/06/30 12:03:02;;;;;;;1.40;0.90;;;28.10;91.90;;;;;;5033416;28;20673;-78
2021/06/30 12:05:30;;;;;;;1.97;1.23;;;28.10;91.90;;;;;;5033706;28;20628;-79
2021/06/30 12:07:58;;;;;;;1.53;1.00;;;28.00;91.80;;;;;;5013896;28;20626;-80
2021/06/30 12:10:26;;;;;;;2.57;1.23;;;28.00;91.70;;;;;;4995873;28;20589;-80
2021/06/30 12:12:52;;;;;;;2.57;1.37;;;28.00;91.70;;;;;;5015206;28;20629;-79
2021/06/30 12:15:19;;;;;;;2.30;1.60;;;28.00;91.80;;;;;;5029068;28;20653;-79
2021/06/30 12:17:51;;;;;;;1.50;1.00;;;28.00;91.70;;;;;;5031431;28;20632;-79
2021/06/30 12:20:20;;;;;;;1.60;1.33;;;28.10;90.90;;;;;;5032900;28;20665;-78
2021/06/30 12:22:46;;;;;;;1.20;0.70;;;28.10;91.60;;;;;;5027011;28;21041;-79
2021/06/30 12:25:18;;;;;;;3.67;0.87;;;28.20;91.80;;;;;;5007446;28;20636;-79
2021/06/30 12:27:52;;;;;;;1.53;0.70;;;28.20;91.50;;;;;;5006572;28;20637;-78
2021/06/30 12:30:22;;;;;;;1.53;0.80;;;28.20;91.30;;;;;;4998855;28;20606;-78
2021/06/30 12:32:54;;;;;;;1.70;0.93;;;28.20;91.60;;;;;;5014287;28;21037;-77
2021/06/30 12:35:28;;;;;;;1.57;1.00;;;28.10;90.90;;;;;;4996322;28;20672;-76
2021/06/30 12:38:31;;;;;;;2.17;1.70;;;28.10;90.90;;;;;;4996520;28;20609;-78
2021/06/30 12:41:08;;;;;;;2.73;2.07;;;27.90;90.60;;;;;;5001468;28;20594;-78
2021/06/30 12:43:35;;;;;;;2.57;1.97;;;27.80;91.00;;;;;;5003451;28;20565;-79
2021/06/30 12:46:01;;;;;;;2.00;1.33;;;27.80;90.80;;;;;;5018291;28;20608;-78
2021/06/30 12:48:29;;;;;;;3.17;1.47;;;27.70;90.80;;;;;;5016898;28;20688;-78
2021/06/30 12:51:10;;;;;;;1.83;1.10;;;27.70;90.70;;;;;;5014213;28;20522;-79
2021/06/30 12:53:36;;;;;;;1.90;0.90;;;27.60;90.60;;;;;;4984996;28;20569;-80
2021/06/30 12:56:24;;;;;;;2.20;1.30;;;27.50;90.30;;;;;;4983158;28;20577;-79
2021/06/30 12:58:55;;;;;;;1.50;1.10;;;27.50;90.40;;;;;;5019982;28;20574;-78
2021/06/30 13:01:39;;;;;;;1.73;1.10;;;27.40;90.60;;;;;;5000599;28;20651;-78
2021/06/30 13:04:07;;;;;;;1.40;1.00;;;27.30;90.40;;;;;;5013389;28;20583;-79
2021/06/30 13:06:36;;;;;;;2.20;1.60;;;27.30;90.60;;;;;;5013824;28;20691;-79